createdAt,value
2018-12-22T00:01:06.654Z,22.10
2018-12-22T00:03:33.779Z,22.10
2018-12-22T00:06:00.796Z,22.20
2018-12-22T00:08:27.799Z,22.20
2018-12-22T00:10:54.953Z,22.20
2018-12-22T00:13:21.982Z,22.20
2018-12-22T00:15:49.012Z,22.20
2018-12-22T00:18:16.060Z,22.20
2018-12-22T00:20:43.213Z,22.20
2018-12-22T00:23:10.236Z,22.20
2018-12-22T00:25:37.243Z,22.20
2018-12-22T00:28:04.303Z,22.20
2018-12-22T00:30:31.364Z,22.20
2018-12-22T00:32:58.444Z,22.30
2018-12-22T00:35:25.485Z,22.20
2018-12-22T00:37:52.535Z,22.30
2018-12-22T00:40:19.548Z,22.20
2018-12-22T00:42:46.559Z,22.20
2018-12-22T00:45:13.621Z,22.20
2018-12-22T00:47:41.619Z,22.20
2018-12-22T00:50:08.645Z,22.20
2018-12-22T00:52:35.751Z,22.20
2018-12-22T00:55:02.804Z,22.20
2018-12-22T00:57:29.858Z,22.20
2018-12-22T00:59:56.932Z,22.20
2018-12-22T01:02:23.930Z,22.20
2018-12-22T01:04:50.982Z,22.20
2018-12-22T01:07:18.018Z,22.20
2018-12-22T01:09:45.094Z,22.20
2018-12-22T01:12:12.148Z,22.20
2018-12-22T01:14:39.177Z,22.20
2018-12-22T01:17:06.284Z,22.10
2018-12-22T01:19:33.303Z,22.20
2018-12-22T01:22:00.341Z,22.20
2018-12-22T01:24:27.406Z,22.20
2018-12-22T01:26:54.428Z,22.10
2018-12-22T01:29:21.447Z,22.10
2018-12-22T01:31:48.533Z,22.10
2018-12-22T01:34:15.579Z,22.10
2018-12-22T01:36:42.605Z,22.10
2018-12-22T01:39:09.769Z,22.10
2018-12-22T01:41:36.832Z,22.00
2018-12-22T01:44:03.968Z,22.00
2018-12-22T01:46:31.034Z,22.00
2018-12-22T01:48:58.101Z,22.00
2018-12-22T01:51:25.326Z,22.00
2018-12-22T01:53:52.356Z,22.00
2018-12-22T01:56:19.535Z,22.00
2018-12-22T01:58:47.991Z,22.00
2018-12-22T02:01:15.254Z,22.00
2018-12-22T02:03:42.310Z,22.00
2018-12-22T02:06:09.331Z,22.00
2018-12-22T02:08:36.501Z,22.00
2018-12-22T02:11:03.520Z,22.00
2018-12-22T02:13:30.538Z,22.00
2018-12-22T02:15:57.619Z,22.00
2018-12-22T02:18:24.629Z,22.00
2018-12-22T02:20:51.642Z,22.00
2018-12-22T02:23:18.700Z,22.00
2018-12-22T02:25:45.715Z,22.00
2018-12-22T02:28:12.810Z,22.00
2018-12-22T02:30:39.968Z,22.00
2018-12-22T02:33:07.076Z,22.00
2018-12-22T02:35:34.110Z,22.00
2018-12-22T02:38:01.216Z,22.00
2018-12-22T02:40:28.708Z,22.00
2018-12-22T02:42:55.818Z,22.00
2018-12-22T02:45:22.878Z,22.00
2018-12-22T02:47:49.882Z,22.00
2018-12-22T02:50:16.960Z,22.00
2018-12-22T02:52:43.978Z,22.00
2018-12-22T02:55:10.978Z,22.00
2018-12-22T02:57:38.139Z,22.00
2018-12-22T03:00:07.143Z,22.00
2018-12-22T03:02:34.429Z,22.00
2018-12-22T03:05:01.467Z,22.00
2018-12-22T03:07:28.499Z,22.00
2018-12-22T03:09:55.653Z,22.00
2018-12-22T03:12:22.690Z,22.00
2018-12-22T03:14:49.689Z,22.00
2018-12-22T03:17:16.775Z,22.00
2018-12-22T03:19:43.856Z,22.00
2018-12-22T03:22:10.887Z,22.00
2018-12-22T03:24:37.930Z,22.00
2018-12-22T03:27:05.095Z,22.00
2018-12-22T03:29:32.124Z,22.00
2018-12-22T03:31:59.178Z,22.00
2018-12-22T03:34:26.239Z,22.00
2018-12-22T03:36:53.257Z,22.00
2018-12-22T03:39:20.269Z,22.00
2018-12-22T03:41:47.363Z,22.00
2018-12-22T03:44:14.399Z,22.00
2018-12-22T03:46:41.431Z,22.00
2018-12-22T03:49:08.511Z,22.00
2018-12-22T03:51:35.538Z,22.00
2018-12-22T03:54:02.685Z,22.00
2018-12-22T03:56:29.715Z,22.00
2018-12-22T03:58:56.794Z,22.00
2018-12-22T04:01:23.803Z,22.00
2018-12-22T04:03:50.925Z,22.00
2018-12-22T04:06:18.038Z,22.00
2018-12-22T04:08:45.061Z,22.00
2018-12-22T04:11:12.062Z,21.90
2018-12-22T04:13:39.076Z,22.00
2018-12-22T04:16:06.109Z,22.00
2018-12-22T04:18:33.148Z,22.00
2018-12-22T04:21:00.172Z,21.90
2018-12-22T04:23:27.217Z,22.00
2018-12-22T04:25:54.250Z,22.00
2018-12-22T04:28:21.249Z,22.00
2018-12-22T04:30:48.409Z,22.00
2018-12-22T04:33:15.447Z,22.00
2018-12-22T04:35:42.522Z,22.00
2018-12-22T04:38:09.544Z,22.00
2018-12-22T04:40:36.618Z,22.00
2018-12-22T04:43:03.677Z,22.00
2018-12-22T04:45:30.801Z,22.00
2018-12-22T04:47:57.948Z,22.00
2018-12-22T04:50:24.982Z,22.00
2018-12-22T04:52:52.127Z,22.00
2018-12-22T04:55:19.162Z,22.00
2018-12-22T04:57:46.169Z,22.00
2018-12-22T05:00:13.244Z,22.00
2018-12-22T05:02:40.325Z,22.00
2018-12-22T05:05:07.395Z,22.00
2018-12-22T05:07:34.573Z,21.90
2018-12-22T05:10:01.687Z,21.90
2018-12-22T05:12:28.693Z,21.90
2018-12-22T05:14:55.772Z,22.00
2018-12-22T05:17:22.836Z,21.90
2018-12-22T05:19:49.871Z,22.00
2018-12-22T05:22:16.880Z,21.90
2018-12-22T05:24:43.945Z,21.90
2018-12-22T05:27:10.949Z,21.90
2018-12-22T05:29:37.976Z,21.90
2018-12-22T05:32:05.193Z,21.90
2018-12-22T05:34:32.253Z,21.90
2018-12-22T05:36:59.323Z,21.90
2018-12-22T05:39:26.385Z,21.90
2018-12-22T05:41:53.431Z,21.90
2018-12-22T05:44:20.459Z,21.90
2018-12-22T05:46:47.515Z,21.90
2018-12-22T05:49:14.638Z,21.90
2018-12-22T05:51:41.779Z,21.90
2018-12-22T05:54:08.959Z,21.90
2018-12-22T05:56:35.960Z,21.90
2018-12-22T05:59:02.979Z,21.90
2018-12-22T06:01:30.091Z,21.90
2018-12-22T06:03:57.108Z,21.90
2018-12-22T06:06:24.197Z,21.90
2018-12-22T06:08:51.266Z,21.90
2018-12-22T06:11:18.367Z,21.90
2018-12-22T06:13:45.381Z,21.90
2018-12-22T06:16:12.481Z,21.90
2018-12-22T06:18:39.545Z,21.90
2018-12-22T06:21:06.563Z,21.90
2018-12-22T06:23:33.627Z,21.90
2018-12-22T06:26:00.764Z,21.90
2018-12-22T06:28:27.827Z,21.90
2018-12-22T06:30:54.868Z,21.80
2018-12-22T06:33:21.876Z,21.90
2018-12-22T06:35:48.946Z,21.90
2018-12-22T06:38:16.111Z,21.90
2018-12-22T06:40:43.140Z,21.90
2018-12-22T06:43:10.182Z,21.90
2018-12-22T06:45:37.264Z,21.90
2018-12-22T06:48:04.508Z,21.90
2018-12-22T06:50:31.532Z,21.90
2018-12-22T06:52:58.591Z,21.90
2018-12-22T06:55:25.723Z,21.90
2018-12-22T06:57:52.806Z,21.90
2018-12-22T07:00:19.816Z,21.90
2018-12-22T07:02:46.881Z,21.90
2018-12-22T07:05:13.911Z,22.00
2018-12-22T07:07:40.942Z,22.10
2018-12-22T07:10:08.309Z,22.20
2018-12-22T07:12:35.309Z,22.30
2018-12-22T07:15:02.552Z,22.30
2018-12-22T07:17:29.676Z,22.40
2018-12-22T07:19:56.704Z,22.40
2018-12-22T07:22:23.712Z,22.50
2018-12-22T07:24:50.767Z,22.60
2018-12-22T07:27:17.875Z,22.60
2018-12-22T07:29:44.951Z,22.60
2018-12-22T07:32:11.990Z,22.60
2018-12-22T07:34:39.001Z,22.50
2018-12-22T07:37:06.178Z,22.50
2018-12-22T07:39:33.218Z,22.50
2018-12-22T07:42:00.245Z,22.50
2018-12-22T07:44:27.304Z,22.50
2018-12-22T07:46:55.602Z,22.50
2018-12-22T07:49:22.640Z,22.50
2018-12-22T07:51:49.702Z,22.50
2018-12-22T07:54:16.733Z,22.50
2018-12-22T07:56:43.832Z,22.50
2018-12-22T07:59:10.862Z,22.50
2018-12-22T08:01:37.916Z,22.50
2018-12-22T08:04:04.999Z,22.50
2018-12-22T08:06:32.070Z,22.50
2018-12-22T08:08:59.133Z,22.50
2018-12-22T08:11:26.138Z,22.40
2018-12-22T08:13:53.319Z,22.40
2018-12-22T08:16:20.337Z,22.40
2018-12-22T08:18:47.348Z,22.40
2018-12-22T08:21:14.428Z,22.40
2018-12-22T08:23:41.442Z,22.30
2018-12-22T08:26:08.540Z,22.30
2018-12-22T08:28:35.599Z,22.30
2018-12-22T08:31:02.648Z,22.30
2018-12-22T08:33:29.719Z,22.40
2018-12-22T08:35:56.753Z,22.40
2018-12-22T08:38:23.794Z,22.40
2018-12-22T08:40:50.835Z,22.40
2018-12-22T08:43:18.036Z,22.40
2018-12-22T08:45:45.112Z,22.50
2018-12-22T08:48:12.332Z,22.50
2018-12-22T08:50:39.367Z,22.40
2018-12-22T08:53:06.400Z,22.40
2018-12-22T08:55:33.448Z,22.40
2018-12-22T08:58:00.480Z,22.40
2018-12-22T09:00:27.607Z,22.40
2018-12-22T09:02:54.664Z,22.40
2018-12-22T09:05:21.680Z,22.40
2018-12-22T09:07:48.735Z,22.40
2018-12-22T09:10:15.810Z,22.40
2018-12-22T09:12:43.076Z,22.30
2018-12-22T09:15:10.144Z,22.40
2018-12-22T09:17:37.249Z,22.30
2018-12-22T09:20:07.003Z,22.30
2018-12-22T09:22:34.051Z,22.30
2018-12-22T09:25:01.161Z,22.30
2018-12-22T09:27:28.326Z,22.30
2018-12-22T09:29:55.553Z,22.30
2018-12-22T09:32:22.592Z,22.20
2018-12-22T09:34:49.677Z,22.20
2018-12-22T09:37:16.818Z,22.20
2018-12-22T09:39:43.875Z,22.20
2018-12-22T09:42:10.903Z,22.20
2018-12-22T09:44:37.922Z,22.20
2018-12-22T09:47:04.994Z,22.10
2018-12-22T09:49:32.056Z,22.20
2018-12-22T09:51:59.086Z,22.20
2018-12-22T09:54:26.220Z,22.20
2018-12-22T09:56:53.260Z,22.20
2018-12-22T09:59:20.393Z,22.20
2018-12-22T10:01:47.531Z,22.20
2018-12-22T10:04:14.647Z,22.20
2018-12-22T10:06:41.656Z,22.40
2018-12-22T10:09:08.720Z,22.30
2018-12-22T10:11:35.882Z,22.40
2018-12-22T10:14:02.958Z,22.40
2018-12-22T10:16:29.999Z,22.30
2018-12-22T10:18:57.148Z,22.30
2018-12-22T10:21:24.179Z,22.30
2018-12-22T10:23:51.194Z,22.30
2018-12-22T10:26:18.287Z,22.30
2018-12-22T10:28:45.296Z,22.30
2018-12-22T10:31:17.947Z,22.30
2018-12-22T10:33:41.361Z,22.20
2018-12-22T10:36:08.378Z,22.20
2018-12-22T10:38:35.566Z,22.30
2018-12-22T10:41:02.622Z,22.30
2018-12-22T10:43:29.736Z,22.30
2018-12-22T10:45:56.799Z,22.20
2018-12-22T10:48:23.819Z,22.40
2018-12-22T10:50:50.925Z,22.30
2018-12-22T10:53:18.098Z,22.30
2018-12-22T10:55:45.126Z,22.20
2018-12-22T10:58:12.130Z,22.20
2018-12-22T11:00:39.196Z,22.30
2018-12-22T11:03:06.206Z,22.30
2018-12-22T11:05:33.298Z,22.30
2018-12-22T11:08:00.349Z,22.30
2018-12-22T11:10:27.375Z,22.30
2018-12-22T11:12:54.524Z,22.20
2018-12-22T11:15:21.548Z,22.20
2018-12-22T11:17:48.633Z,22.30
2018-12-22T11:20:15.702Z,22.20
2018-12-22T11:22:42.756Z,22.20
2018-12-22T11:25:12.317Z,22.20
2018-12-22T11:27:39.402Z,22.20
2018-12-22T11:30:09.306Z,22.20
2018-12-22T11:32:36.342Z,22.20
2018-12-22T11:35:03.860Z,22.20
2018-12-22T11:37:30.893Z,22.20
2018-12-22T11:39:57.936Z,22.20
2018-12-22T11:42:24.999Z,22.10
2018-12-22T11:44:52.098Z,22.20
2018-12-22T11:47:19.961Z,22.10
2018-12-22T11:49:47.012Z,22.10
2018-12-22T11:52:14.023Z,22.10
2018-12-22T11:54:41.088Z,22.10
2018-12-22T11:57:08.157Z,22.10
2018-12-22T11:59:35.180Z,22.10
2018-12-22T12:02:09.673Z,22.10
2018-12-22T12:04:31.350Z,22.20
2018-12-22T12:06:58.506Z,22.20
2018-12-22T12:09:25.627Z,22.20
2018-12-22T12:11:52.795Z,22.20
2018-12-22T12:14:19.830Z,22.30
2018-12-22T12:16:46.884Z,22.30
2018-12-22T12:19:14.320Z,22.30
2018-12-22T12:21:41.392Z,22.30
2018-12-22T12:24:08.394Z,22.30
2018-12-22T12:26:35.426Z,22.30
2018-12-22T12:29:02.506Z,22.30
2018-12-22T12:31:29.517Z,22.30
2018-12-22T12:33:56.535Z,22.30
2018-12-22T12:36:23.582Z,22.40
2018-12-22T12:38:52.823Z,22.40
2018-12-22T12:41:20.245Z,22.40
2018-12-22T12:43:47.326Z,22.30
2018-12-22T12:46:14.457Z,22.40
2018-12-22T12:48:41.474Z,22.30
2018-12-22T12:51:08.617Z,22.40
2018-12-22T12:53:35.767Z,22.40
2018-12-22T12:56:02.843Z,22.40
2018-12-22T12:58:29.967Z,22.50
2018-12-22T13:00:57.056Z,22.50
2018-12-22T13:03:24.138Z,22.50
2018-12-22T13:05:51.173Z,22.50
2018-12-22T13:08:18.193Z,22.50
2018-12-22T13:10:45.315Z,22.40
2018-12-22T13:13:14.341Z,22.40
2018-12-22T13:15:41.443Z,22.50
2018-12-22T13:18:08.498Z,22.50
2018-12-22T13:20:35.540Z,22.40
2018-12-22T13:23:02.627Z,22.50
2018-12-22T13:25:29.624Z,22.50
2018-12-22T13:27:56.641Z,22.40
2018-12-22T13:30:23.745Z,22.40
2018-12-22T13:32:50.738Z,22.40
2018-12-22T13:35:17.741Z,22.40
2018-12-22T13:37:44.798Z,22.40
2018-12-22T13:40:12.288Z,22.40
2018-12-22T13:42:39.341Z,22.40
2018-12-22T13:45:09.749Z,22.40
2018-12-22T13:47:37.063Z,22.40
2018-12-22T13:50:13.408Z,22.40
2018-12-22T13:52:40.588Z,22.40
2018-12-22T13:55:08.239Z,22.40
2018-12-22T13:57:35.471Z,22.40
2018-12-22T14:00:03.120Z,22.40
2018-12-22T14:02:32.076Z,22.40
2018-12-22T14:04:59.121Z,22.40
2018-12-22T14:07:26.138Z,22.40
2018-12-22T14:09:53.288Z,22.40
2018-12-22T14:12:20.352Z,22.40
2018-12-22T14:14:47.448Z,22.40
2018-12-22T14:17:14.531Z,22.40
2018-12-22T14:19:41.740Z,22.30
2018-12-22T14:22:08.764Z,22.40
2018-12-22T14:24:35.812Z,22.40
2018-12-22T14:27:02.894Z,22.40
2018-12-22T14:29:29.946Z,22.40
2018-12-22T14:31:57.026Z,22.40
2018-12-22T14:34:24.618Z,22.30
2018-12-22T14:36:51.677Z,22.40
2018-12-22T14:39:18.724Z,22.40
2018-12-22T14:41:45.844Z,22.40
2018-12-22T14:44:12.957Z,22.40
2018-12-22T14:46:39.956Z,22.40
2018-12-22T14:49:07.065Z,22.40
2018-12-22T14:51:34.140Z,22.40
2018-12-22T14:54:01.256Z,22.40
2018-12-22T14:56:33.984Z,22.40
2018-12-22T14:59:01.288Z,22.40
2018-12-22T15:01:28.350Z,22.40
2018-12-22T15:03:55.371Z,22.40
2018-12-22T15:06:22.441Z,22.40
2018-12-22T15:08:49.446Z,22.40
2018-12-22T15:11:16.528Z,22.40
2018-12-22T15:13:43.574Z,22.40
2018-12-22T15:16:10.626Z,22.40
2018-12-22T15:18:37.656Z,22.40
2018-12-22T15:21:04.694Z,22.30
2018-12-22T15:23:31.757Z,22.30
2018-12-22T15:25:58.904Z,22.30
2018-12-22T15:28:25.958Z,22.30
2018-12-22T15:30:53.012Z,22.30
2018-12-22T15:33:20.029Z,22.30
2018-12-22T15:35:47.323Z,22.30
2018-12-22T15:38:14.341Z,22.30
2018-12-22T15:40:41.399Z,22.30
2018-12-22T15:43:08.447Z,22.30
2018-12-22T15:45:35.508Z,22.30
2018-12-22T15:48:02.633Z,22.30
2018-12-22T15:50:31.628Z,22.30
2018-12-22T15:52:58.881Z,22.30
2018-12-22T15:55:25.959Z,22.30
2018-12-22T15:57:52.985Z,22.30
2018-12-22T16:00:20.054Z,22.30
2018-12-22T16:02:53.060Z,22.30
2018-12-22T16:05:16.123Z,22.30
2018-12-22T16:07:43.238Z,22.30
2018-12-22T16:10:18.266Z,22.40
2018-12-22T16:12:45.297Z,22.40
2018-12-22T16:15:14.702Z,22.40
2018-12-22T16:17:41.779Z,22.40
2018-12-22T16:20:09.954Z,22.40
2018-12-22T16:22:37.284Z,22.40
2018-12-22T16:25:11.345Z,22.40
2018-12-22T16:27:35.512Z,22.40
2018-12-22T16:30:04.526Z,22.50
2018-12-22T16:32:31.586Z,22.50
2018-12-22T16:34:58.618Z,22.50
2018-12-22T16:37:25.692Z,22.50
2018-12-22T16:39:52.752Z,22.50
2018-12-22T16:42:19.774Z,22.60
2018-12-22T16:44:46.857Z,22.70
2018-12-22T16:47:13.856Z,22.70
2018-12-22T16:49:40.887Z,22.70
2018-12-22T16:52:07.928Z,22.70
2018-12-22T16:54:35.068Z,22.80
2018-12-22T16:57:02.071Z,23.00
2018-12-22T16:59:29.176Z,23.10
2018-12-22T17:01:56.280Z,23.10
2018-12-22T17:04:23.324Z,23.10
2018-12-22T17:06:50.388Z,23.10
2018-12-22T17:09:17.529Z,23.00
2018-12-22T17:11:44.658Z,22.90
2018-12-22T17:14:11.742Z,23.00
2018-12-22T17:16:38.755Z,23.00
2018-12-22T17:19:05.808Z,23.10
2018-12-22T17:21:33.209Z,23.00
2018-12-22T17:24:00.844Z,23.00
2018-12-22T17:26:28.687Z,23.10
2018-12-22T17:28:55.750Z,23.10
2018-12-22T17:31:22.756Z,23.10
2018-12-22T17:33:49.824Z,23.10
2018-12-22T17:36:16.841Z,23.10
2018-12-22T17:38:43.875Z,23.00
2018-12-22T17:41:10.922Z,23.00
2018-12-22T17:43:38.487Z,23.00
2018-12-22T17:46:05.615Z,22.90
2018-12-22T17:48:32.686Z,22.90
2018-12-22T17:50:59.799Z,22.80
2018-12-22T17:53:26.987Z,22.80
2018-12-22T17:55:53.993Z,22.80
2018-12-22T17:58:21.212Z,22.80
2018-12-22T18:00:48.287Z,22.80
2018-12-22T18:03:15.285Z,22.70
2018-12-22T18:05:42.369Z,22.70
2018-12-22T18:08:09.422Z,22.70
2018-12-22T18:10:36.523Z,22.70
2018-12-22T18:13:03.616Z,22.70
2018-12-22T18:15:30.706Z,22.70
2018-12-22T18:17:57.765Z,22.70
2018-12-22T18:20:24.812Z,22.80
2018-12-22T18:22:51.836Z,22.80
2018-12-22T18:25:19.416Z,22.80
2018-12-22T18:27:47.679Z,23.10
2018-12-22T18:30:15.245Z,23.30
2018-12-22T18:32:43.123Z,23.40
2018-12-22T18:35:10.743Z,23.40
2018-12-22T18:37:38.301Z,23.40
2018-12-22T18:40:08.792Z,23.40
2018-12-22T18:42:35.841Z,23.40
2018-12-22T18:45:03.041Z,23.30
2018-12-22T18:47:30.085Z,23.30
2018-12-22T18:49:57.126Z,23.40
2018-12-22T18:52:24.171Z,23.40
2018-12-22T18:54:51.199Z,23.40
2018-12-22T18:57:18.247Z,23.40
2018-12-22T18:59:45.308Z,23.20
2018-12-22T19:02:12.377Z,23.10
2018-12-22T19:04:39.441Z,23.10
2018-12-22T19:07:06.514Z,23.10
2018-12-22T19:09:33.606Z,23.00
2018-12-22T19:12:00.779Z,23.00
2018-12-22T19:14:27.872Z,22.90
2018-12-22T19:16:54.964Z,22.90
2018-12-22T19:19:22.008Z,22.90
2018-12-22T19:21:49.138Z,22.80
2018-12-22T19:24:16.138Z,22.80
2018-12-22T19:26:43.168Z,22.80
2018-12-22T19:29:10.311Z,22.70
2018-12-22T19:31:41.730Z,22.70
2018-12-22T19:34:06.443Z,22.70
2018-12-22T19:36:33.608Z,22.70
2018-12-22T19:39:00.624Z,22.70
2018-12-22T19:41:27.798Z,22.70
2018-12-22T19:43:54.904Z,22.70
2018-12-22T19:46:22.017Z,22.70
2018-12-22T19:48:49.050Z,22.70
2018-12-22T19:51:16.121Z,22.70
2018-12-22T19:53:43.153Z,22.60
2018-12-22T19:56:10.180Z,22.60
2018-12-22T19:58:37.479Z,22.60
2018-12-22T20:01:04.480Z,22.60
2018-12-22T20:03:31.506Z,22.60
2018-12-22T20:05:58.568Z,22.60
2018-12-22T20:08:25.619Z,22.60
2018-12-22T20:10:52.911Z,22.60
2018-12-22T20:13:20.241Z,22.60
2018-12-22T20:15:47.378Z,22.50
2018-12-22T20:18:14.416Z,22.60
2018-12-22T20:20:41.477Z,22.50
2018-12-22T20:23:08.548Z,22.50
2018-12-22T20:25:35.799Z,22.50
2018-12-22T20:28:02.849Z,22.50
2018-12-22T20:30:30.315Z,22.50
2018-12-22T20:32:57.420Z,22.50
2018-12-22T20:35:24.575Z,22.50
2018-12-22T20:37:51.633Z,22.50
2018-12-22T20:40:18.732Z,22.50
2018-12-22T20:42:46.133Z,22.50
2018-12-22T20:45:13.151Z,22.40
2018-12-22T20:47:40.221Z,22.40
2018-12-22T20:50:07.495Z,22.40
2018-12-22T20:52:34.564Z,22.50
2018-12-22T20:55:01.613Z,22.40
2018-12-22T20:57:28.704Z,22.40
2018-12-22T20:59:55.732Z,22.40
2018-12-22T21:02:22.734Z,22.40
2018-12-22T21:04:49.796Z,22.40
2018-12-22T21:07:16.931Z,22.40
2018-12-22T21:09:43.981Z,22.40
2018-12-22T21:12:11.026Z,22.40
2018-12-22T21:14:38.055Z,22.40
2018-12-22T21:17:05.217Z,22.40
2018-12-22T21:19:32.248Z,22.40
2018-12-22T21:21:59.317Z,22.40
2018-12-22T21:24:26.447Z,22.50
2018-12-22T21:26:53.450Z,22.50
2018-12-22T21:29:20.533Z,22.50
2018-12-22T21:31:47.602Z,22.50
2018-12-22T21:34:14.630Z,22.50
2018-12-22T21:36:41.710Z,22.50
2018-12-22T21:39:08.766Z,22.50
2018-12-22T21:41:35.878Z,22.50
2018-12-22T21:44:03.000Z,22.50
2018-12-22T21:46:30.066Z,22.50
2018-12-22T21:48:57.125Z,22.50
2018-12-22T21:51:24.182Z,22.50
2018-12-22T21:53:51.201Z,22.50
2018-12-22T21:56:18.233Z,22.50
2018-12-22T21:58:45.292Z,22.50
2018-12-22T22:01:12.311Z,22.50
2018-12-22T22:03:39.341Z,22.50
2018-12-22T22:06:06.431Z,22.50
2018-12-22T22:08:33.511Z,22.40
2018-12-22T22:11:00.555Z,22.40
2018-12-22T22:13:27.618Z,22.40
2018-12-22T22:15:54.653Z,22.40
2018-12-22T22:18:21.782Z,22.50
2018-12-22T22:20:48.953Z,22.40
2018-12-22T22:23:19.179Z,22.40
2018-12-22T22:25:45.081Z,22.40
2018-12-22T22:28:12.253Z,22.40
2018-12-22T22:30:39.293Z,22.40
2018-12-22T22:33:06.328Z,22.40
2018-12-22T22:35:35.467Z,22.40
2018-12-22T22:38:02.453Z,22.40
2018-12-22T22:40:30.256Z,22.40
2018-12-22T22:42:57.314Z,22.40
2018-12-22T22:45:24.560Z,22.40
2018-12-22T22:47:51.588Z,22.40
2018-12-22T22:50:18.647Z,22.40
2018-12-22T22:52:45.780Z,22.40
2018-12-22T22:55:12.845Z,22.40
2018-12-22T22:57:39.897Z,22.40
2018-12-22T23:00:08.881Z,22.40
2018-12-22T23:02:35.926Z,22.40
2018-12-22T23:05:03.005Z,22.40
2018-12-22T23:07:30.044Z,22.40
2018-12-22T23:09:57.073Z,22.40
2018-12-22T23:12:24.229Z,22.40
2018-12-22T23:14:51.353Z,22.40
2018-12-22T23:17:18.379Z,22.40
2018-12-22T23:19:45.449Z,22.40
2018-12-22T23:22:12.517Z,22.40
2018-12-22T23:24:39.576Z,22.30
2018-12-22T23:27:06.590Z,22.30
2018-12-22T23:29:33.647Z,22.30
2018-12-22T23:32:00.667Z,22.30
2018-12-22T23:34:27.839Z,22.30
2018-12-22T23:36:54.911Z,22.30
2018-12-22T23:39:21.932Z,22.30
2018-12-22T23:41:48.991Z,22.30
2018-12-22T23:44:16.025Z,22.30
2018-12-22T23:46:43.042Z,22.30
2018-12-22T23:49:10.096Z,22.30
2018-12-22T23:51:37.128Z,22.30
2018-12-22T23:54:04.182Z,22.30
2018-12-22T23:56:31.191Z,22.30
2018-12-22T23:58:58.225Z,22.30
